createdAt,value
2018-07-19T00:00:11.838Z,66.10
2018-07-19T00:02:40.464Z,66.30
2018-07-19T00:05:09.047Z,66.50
2018-07-19T00:07:37.692Z,66.60
2018-07-19T00:10:06.693Z,66.80
2018-07-19T00:12:35.659Z,66.50
2018-07-19T00:15:04.789Z,66.70
2018-07-19T00:17:33.320Z,67.10
2018-07-19T00:20:01.730Z,66.50
2018-07-19T00:22:30.257Z,66.20
2018-07-19T00:24:59.335Z,66.50
2018-07-19T00:27:28.215Z,67.00
2018-07-19T00:29:56.767Z,66.50
2018-07-19T00:32:25.586Z,66.70
2018-07-19T00:34:54.308Z,66.10
2018-07-19T00:37:22.868Z,66.70
2018-07-19T00:39:51.617Z,66.80
2018-07-19T00:42:20.250Z,65.50
2018-07-19T00:44:48.881Z,65.60
2018-07-19T00:47:17.435Z,65.40
2018-07-19T00:49:46.161Z,66.10
2018-07-19T00:52:14.830Z,65.60
2018-07-19T00:54:49.660Z,65.10
2018-07-19T00:57:18.565Z,64.20
2018-07-19T00:59:47.212Z,65.20
2018-07-19T01:02:16.209Z,65.90
2018-07-19T01:04:44.993Z,65.80
2018-07-19T01:07:13.611Z,66.20
2018-07-19T01:09:42.687Z,65.90
2018-07-19T01:12:11.342Z,66.00
2018-07-19T01:14:40.253Z,65.70
2018-07-19T01:17:08.850Z,66.30
2018-07-19T01:19:37.538Z,65.70
2018-07-19T01:22:06.228Z,65.80
2018-07-19T01:24:34.985Z,65.80
2018-07-19T01:27:03.820Z,65.80
2018-07-19T01:29:32.343Z,65.40
2018-07-19T01:32:00.962Z,65.70
2018-07-19T01:34:30.656Z,65.60
2018-07-19T01:36:59.928Z,66.10
2018-07-19T01:39:29.218Z,66.30
2018-07-19T01:42:18.550Z,65.80
2018-07-19T01:44:47.470Z,66.50
2018-07-19T01:47:16.188Z,66.50
2018-07-19T01:49:45.704Z,66.60
2018-07-19T01:52:15.108Z,66.60
2018-07-19T01:54:44.298Z,66.20
2018-07-19T01:57:14.030Z,66.40
2018-07-19T01:59:43.214Z,65.90
2018-07-19T02:02:12.534Z,66.50
2018-07-19T02:04:41.715Z,65.60
2018-07-19T02:07:11.056Z,67.00
2018-07-19T02:09:39.998Z,66.10
2018-07-19T02:12:09.502Z,66.10
2018-07-19T02:14:38.126Z,65.20
2018-07-19T02:17:06.962Z,65.40
2018-07-19T02:19:35.558Z,65.10
2018-07-19T02:22:04.338Z,65.50
2018-07-19T02:24:32.910Z,65.90
2018-07-19T02:27:02.038Z,66.60
2018-07-19T02:29:31.246Z,66.60
2018-07-19T02:32:00.037Z,66.60
2018-07-19T02:34:29.544Z,67.00
2018-07-19T02:36:58.874Z,66.60
2018-07-19T02:39:27.439Z,67.20
2018-07-19T02:41:56.131Z,66.70
2018-07-19T02:44:25.072Z,66.00
2018-07-19T02:46:53.876Z,66.10
2018-07-19T02:49:22.481Z,66.00
2018-07-19T02:51:51.191Z,66.20
2018-07-19T02:54:19.940Z,66.90
2018-07-19T02:56:48.665Z,67.10
2018-07-19T02:59:17.250Z,67.50
2018-07-19T03:01:46.035Z,67.40
2018-07-19T03:04:14.642Z,66.20
2018-07-19T03:06:43.233Z,65.90
2018-07-19T03:09:11.809Z,65.50
2018-07-19T03:11:40.467Z,66.10
2018-07-19T03:14:09.412Z,66.30
2018-07-19T03:16:38.051Z,66.70
2018-07-19T03:19:06.651Z,65.70
2018-07-19T03:21:35.425Z,66.30
2018-07-19T03:24:03.864Z,66.20
2018-07-19T03:26:32.523Z,66.90
2018-07-19T03:29:01.098Z,66.70
2018-07-19T03:31:30.198Z,66.60
2018-07-19T03:33:59.194Z,66.00
2018-07-19T03:36:28.158Z,65.50
2018-07-19T03:38:56.698Z,65.30
2018-07-19T03:41:26.432Z,65.20
2018-07-19T03:43:55.008Z,65.50
2018-07-19T03:46:23.630Z,65.40
2018-07-19T03:48:52.242Z,65.30
2018-07-19T03:51:20.976Z,65.40
2018-07-19T03:53:49.667Z,65.40
2018-07-19T03:56:18.293Z,65.20
2018-07-19T03:58:46.954Z,65.90
2018-07-19T04:01:15.558Z,65.90
2018-07-19T04:03:44.190Z,65.80
2018-07-19T04:06:12.774Z,66.40
2018-07-19T04:08:41.398Z,66.90
2018-07-19T04:11:10.109Z,66.80
2018-07-19T04:13:38.697Z,67.10
2018-07-19T04:16:07.251Z,67.10
2018-07-19T04:18:35.832Z,67.40
2018-07-19T04:21:05.449Z,67.60
2018-07-19T04:23:34.338Z,67.50
2018-07-19T04:26:03.328Z,67.70
2018-07-19T04:28:32.838Z,67.40
2018-07-19T04:31:02.595Z,67.80
2018-07-19T04:33:31.179Z,68.10
2018-07-19T04:36:00.148Z,68.40
2018-07-19T04:38:28.771Z,68.70
2018-07-19T04:40:58.346Z,68.90
2018-07-19T04:43:26.953Z,69.00
2018-07-19T04:45:55.566Z,69.20
2018-07-19T04:48:24.194Z,69.20
2018-07-19T04:50:53.706Z,68.90
2018-07-19T04:53:22.114Z,69.40
2018-07-19T04:55:50.687Z,69.40
2018-07-19T04:58:19.268Z,69.40
2018-07-19T05:00:47.849Z,69.70
2018-07-19T05:03:16.484Z,69.80
2018-07-19T05:05:45.212Z,69.60
2018-07-19T05:08:13.813Z,70.20
2018-07-19T05:10:42.570Z,70.60
2018-07-19T05:13:11.162Z,70.60
2018-07-19T05:15:39.743Z,70.10
2018-07-19T05:18:09.013Z,70.40
2018-07-19T05:20:38.606Z,70.60
2018-07-19T05:23:07.169Z,71.20
2018-07-19T05:25:35.848Z,71.20
2018-07-19T05:28:04.565Z,71.10
2018-07-19T05:30:34.259Z,71.30
2018-07-19T05:33:02.855Z,70.60
2018-07-19T05:35:32.175Z,70.00
2018-07-19T05:38:01.496Z,70.20
2018-07-19T05:40:32.071Z,69.80
2018-07-19T05:43:01.048Z,69.40
2018-07-19T05:45:29.787Z,68.80
2018-07-19T05:47:58.195Z,69.60
2018-07-19T05:50:27.002Z,69.00
2018-07-19T05:52:55.708Z,69.60
2018-07-19T05:55:24.325Z,69.60
2018-07-19T05:57:53.281Z,70.10
2018-07-19T06:00:22.016Z,70.50
2018-07-19T06:02:50.591Z,70.30
2018-07-19T06:05:19.267Z,70.00
2018-07-19T06:07:47.859Z,70.20
2018-07-19T06:10:16.514Z,69.50
2018-07-19T06:12:45.197Z,69.00
2018-07-19T06:15:13.603Z,70.00
2018-07-19T06:17:42.154Z,70.00
2018-07-19T06:20:10.878Z,70.00
2018-07-19T06:22:39.515Z,69.60
2018-07-19T06:25:08.546Z,69.00
2018-07-19T06:27:37.119Z,69.90
2018-07-19T06:30:07.251Z,69.50
2018-07-19T06:32:35.992Z,69.80
2018-07-19T06:35:04.742Z,69.40
2018-07-19T06:37:33.707Z,68.90
2018-07-19T06:40:02.983Z,67.70
2018-07-19T06:42:31.555Z,67.00
2018-07-19T06:45:00.655Z,67.10
2018-07-19T06:47:29.716Z,66.60
2018-07-19T06:49:58.441Z,67.10
2018-07-19T06:52:27.315Z,68.40
2018-07-19T06:54:56.110Z,68.80
2018-07-19T06:57:25.070Z,69.00
2018-07-19T06:59:53.823Z,69.10
2018-07-19T07:02:22.690Z,67.80
2018-07-19T07:04:51.670Z,67.30
2018-07-19T07:07:20.270Z,68.20
2018-07-19T07:09:48.933Z,68.20
2018-07-19T07:12:17.718Z,68.80
2018-07-19T07:14:46.396Z,68.20
2018-07-19T07:17:15.351Z,68.60
2018-07-19T07:19:44.085Z,68.20
2018-07-19T07:22:12.651Z,67.20
2018-07-19T07:24:41.114Z,66.40
2018-07-19T07:27:09.768Z,65.50
2018-07-19T07:29:38.485Z,65.20
2018-07-19T07:32:07.550Z,65.70
2018-07-19T07:34:36.237Z,64.90
2018-07-19T07:37:04.863Z,65.40
2018-07-19T07:39:34.877Z,65.40
2018-07-19T07:42:03.477Z,65.50
2018-07-19T07:44:32.467Z,64.80
2018-07-19T07:47:01.040Z,64.90
2018-07-19T07:49:29.668Z,64.90
2018-07-19T07:51:58.083Z,64.70
2018-07-19T07:54:26.707Z,64.90
2018-07-19T07:56:55.302Z,65.20
2018-07-19T07:59:24.328Z,64.60
2018-07-19T08:01:53.055Z,64.00
2018-07-19T08:04:21.485Z,64.40
2018-07-19T08:06:50.072Z,64.20
2018-07-19T08:09:18.773Z,64.60
2018-07-19T08:11:47.877Z,64.90
2018-07-19T08:14:16.475Z,63.20
2018-07-19T08:16:45.091Z,63.80
2018-07-19T08:19:13.781Z,63.30
2018-07-19T08:21:42.487Z,62.90
2018-07-19T08:24:11.292Z,63.80
2018-07-19T08:26:39.893Z,63.20
2018-07-19T08:29:08.578Z,63.00
2018-07-19T08:31:37.254Z,64.20
2018-07-19T08:34:06.146Z,64.20
2018-07-19T08:36:34.713Z,63.90
2018-07-19T08:39:03.383Z,63.00
2018-07-19T08:41:32.065Z,63.90
2018-07-19T08:44:01.292Z,60.60
2018-07-19T08:46:30.273Z,62.30
2018-07-19T08:48:58.682Z,63.30
2018-07-19T08:51:27.436Z,62.70
2018-07-19T08:53:56.147Z,61.70
2018-07-19T08:56:24.731Z,61.80
2018-07-19T08:58:53.334Z,62.00
2018-07-19T09:01:21.984Z,61.70
2018-07-19T09:03:50.691Z,62.80
2018-07-19T09:06:19.288Z,62.70
2018-07-19T09:08:47.872Z,62.20
2018-07-19T09:11:16.824Z,62.60
2018-07-19T09:13:45.687Z,62.90
2018-07-19T09:16:14.324Z,60.30
2018-07-19T09:21:11.326Z,60.50
2018-07-19T09:23:39.946Z,61.60
2018-07-19T09:26:08.641Z,61.30
2018-07-19T09:28:37.371Z,60.30
2018-07-19T09:31:06.112Z,59.20
2018-07-19T09:33:34.802Z,57.60
2018-07-19T09:36:03.437Z,57.80
2018-07-19T09:38:32.673Z,57.20
2018-07-19T09:41:01.460Z,58.40
2018-07-19T09:43:30.115Z,56.60
2018-07-19T09:45:59.005Z,57.20
2018-07-19T09:48:27.578Z,56.20
2018-07-19T09:50:56.223Z,58.50
2018-07-19T09:53:24.806Z,57.70
2018-07-19T09:55:53.362Z,55.40
2018-07-19T09:58:22.020Z,57.30
2018-07-19T10:00:56.028Z,57.80
2018-07-19T10:03:24.628Z,57.30
2018-07-19T10:05:53.026Z,56.70
2018-07-19T10:08:21.675Z,56.00
2018-07-19T10:10:51.581Z,57.50
2018-07-19T10:13:20.135Z,56.50
2018-07-19T10:15:48.774Z,57.80
2018-07-19T10:18:17.691Z,55.90
2018-07-19T10:20:46.160Z,54.80
2018-07-19T10:23:14.811Z,54.30
2018-07-19T10:25:43.543Z,52.60
2018-07-19T10:28:12.259Z,54.60
2018-07-19T10:30:40.698Z,56.00
2018-07-19T10:35:37.639Z,55.70
2018-07-19T10:38:06.332Z,56.80
2018-07-19T10:40:35.945Z,54.30
2018-07-19T10:43:04.624Z,54.40
2018-07-19T10:45:34.010Z,53.60
2018-07-19T10:48:03.239Z,54.80
2018-07-19T10:50:33.254Z,54.70
2018-07-19T10:53:01.896Z,54.70
2018-07-19T10:55:30.324Z,53.70
2018-07-19T10:57:58.702Z,52.60
2018-07-19T11:00:27.535Z,54.60
2018-07-19T11:02:56.356Z,52.50
2018-07-19T11:07:53.242Z,55.60
2018-07-19T11:10:22.026Z,52.10
2018-07-19T11:12:50.726Z,54.50
2018-07-19T11:15:19.540Z,53.50
2018-07-19T11:17:47.895Z,54.90
2018-07-19T11:20:16.303Z,54.80
2018-07-19T11:22:44.754Z,53.50
2018-07-19T11:25:14.416Z,52.20
2018-07-19T11:27:43.479Z,55.20
2018-07-19T11:30:12.158Z,51.40
2018-07-19T11:32:40.560Z,51.00
2018-07-19T11:35:09.116Z,52.10
2018-07-19T11:37:37.502Z,52.20
2018-07-19T11:40:05.955Z,54.20
2018-07-19T11:42:34.336Z,53.90
2018-07-19T11:45:02.763Z,53.60
2018-07-19T11:47:31.127Z,53.70
2018-07-19T11:49:59.656Z,53.10
2018-07-19T11:52:28.198Z,53.40
2018-07-19T11:54:56.681Z,53.10
2018-07-19T11:57:25.411Z,52.60
2018-07-19T11:59:53.846Z,53.20
2018-07-19T12:02:22.262Z,53.60
2018-07-19T12:04:50.724Z,51.80
2018-07-19T12:07:19.481Z,53.60
2018-07-19T12:09:48.047Z,54.40
2018-07-19T12:12:16.538Z,52.50
2018-07-19T12:14:45.080Z,52.40
2018-07-19T12:17:13.564Z,52.80
2018-07-19T12:19:42.083Z,53.40
2018-07-19T12:22:10.521Z,51.40
2018-07-19T12:24:38.987Z,53.50
2018-07-19T12:27:07.367Z,50.20
2018-07-19T12:29:35.883Z,51.80
2018-07-19T12:32:05.513Z,52.30
2018-07-19T12:34:34.827Z,50.90
2018-07-19T12:37:03.938Z,50.40
2018-07-19T12:39:32.830Z,51.00
2018-07-19T12:42:02.365Z,47.50
2018-07-19T12:44:30.863Z,48.10
2018-07-19T12:46:59.244Z,48.50
2018-07-19T12:49:28.390Z,48.80
2018-07-19T12:51:56.814Z,46.60
2018-07-19T12:56:53.399Z,50.00
2018-07-19T12:59:21.993Z,49.40
2018-07-19T13:01:50.443Z,49.40
2018-07-19T13:04:19.012Z,51.60
2018-07-19T13:06:47.522Z,51.40
2018-07-19T13:09:16.006Z,49.80
2018-07-19T13:11:44.781Z,51.30
2018-07-19T13:14:14.125Z,51.70
2018-07-19T13:16:42.692Z,51.10
2018-07-19T13:19:11.233Z,51.40
2018-07-19T13:21:39.975Z,52.50
2018-07-19T13:24:08.972Z,48.70
2018-07-19T13:26:37.822Z,47.90
2018-07-19T13:29:06.319Z,49.80
2018-07-19T13:31:34.910Z,49.40
2018-07-19T13:34:03.970Z,49.60
2018-07-19T13:36:32.738Z,49.40
2018-07-19T13:39:01.250Z,48.00
2018-07-19T13:41:29.709Z,47.70
2018-07-19T13:43:58.251Z,48.90
2018-07-19T13:46:26.807Z,46.50
2018-07-19T13:48:55.257Z,48.20
2018-07-19T13:51:23.617Z,44.50
2018-07-19T13:54:14.674Z,44.60
2018-07-19T13:56:43.582Z,47.70
2018-07-19T13:59:12.232Z,49.10
2018-07-19T14:01:41.026Z,46.90
2018-07-19T14:04:09.813Z,48.60
2018-07-19T14:06:38.395Z,49.10
2018-07-19T14:09:08.790Z,47.20
2018-07-19T14:11:37.503Z,46.90
2018-07-19T14:14:06.125Z,48.80
2018-07-19T14:16:35.144Z,48.40
2018-07-19T14:19:04.698Z,46.80
2018-07-19T14:21:33.198Z,46.20
2018-07-19T14:24:01.641Z,46.30
2018-07-19T14:26:30.209Z,47.60
2018-07-19T14:28:58.645Z,47.70
2018-07-19T14:31:28.170Z,46.70
2018-07-19T14:33:56.516Z,47.40
2018-07-19T14:36:25.019Z,47.90
2018-07-19T14:38:53.332Z,49.20
2018-07-19T14:41:22.191Z,47.00
2018-07-19T14:43:50.603Z,48.00
2018-07-19T14:46:19.083Z,48.60
2018-07-19T14:48:47.425Z,46.70
2018-07-19T14:51:16.856Z,48.00
2018-07-19T14:53:45.223Z,47.90
2018-07-19T14:56:14.417Z,47.20
2018-07-19T14:58:43.895Z,46.50
2018-07-19T15:01:13.431Z,45.20
2018-07-19T15:03:42.566Z,47.50
2018-07-19T15:06:11.225Z,46.90
2018-07-19T15:08:39.698Z,45.30
2018-07-19T15:11:08.054Z,46.40
2018-07-19T15:13:36.428Z,45.30
2018-07-19T15:16:05.547Z,45.70
2018-07-19T15:18:33.931Z,43.90
2018-07-19T15:21:03.384Z,44.90
2018-07-19T15:23:32.105Z,47.00
2018-07-19T15:26:00.610Z,45.40
2018-07-19T15:28:29.029Z,42.70
2018-07-19T15:33:26.968Z,45.40
2018-07-19T15:35:55.409Z,45.80
2018-07-19T15:38:23.831Z,44.60
2018-07-19T15:40:53.347Z,43.80
2018-07-19T15:43:21.699Z,44.00
2018-07-19T15:45:50.115Z,43.90
2018-07-19T15:48:18.486Z,44.90
2018-07-19T15:50:46.920Z,46.30
2018-07-19T15:53:15.325Z,45.60
2018-07-19T15:55:44.522Z,45.40
2018-07-19T15:58:13.330Z,44.80
2018-07-19T16:00:43.593Z,45.70
2018-07-19T16:03:11.957Z,44.80
2018-07-19T16:05:40.430Z,46.20
2018-07-19T16:08:08.762Z,46.10
2018-07-19T16:10:38.520Z,46.00
2018-07-19T16:13:06.927Z,47.30
2018-07-19T16:15:35.419Z,45.40
2018-07-19T16:18:03.798Z,47.10
2018-07-19T16:20:33.365Z,46.20
2018-07-19T16:23:02.370Z,45.50
2018-07-19T16:25:30.882Z,47.70
2018-07-19T16:27:59.240Z,46.20
2018-07-19T16:30:27.676Z,47.30
2018-07-19T16:32:56.076Z,46.80
2018-07-19T16:35:24.719Z,47.40
2018-07-19T16:37:53.093Z,46.30
2018-07-19T16:40:21.473Z,47.80
2018-07-19T16:42:49.825Z,47.80
2018-07-19T16:45:18.494Z,48.80
2018-07-19T16:47:46.891Z,48.00
2018-07-19T16:50:15.381Z,47.40
2018-07-19T16:52:44.033Z,49.20
2018-07-19T16:55:12.628Z,47.50
2018-07-19T16:57:41.202Z,46.10
2018-07-19T17:00:09.679Z,47.40
2018-07-19T17:02:38.046Z,48.10
2018-07-19T17:05:06.682Z,43.90
2018-07-19T17:07:35.048Z,45.50
2018-07-19T17:10:03.471Z,48.30
2018-07-19T17:12:32.077Z,46.80
2018-07-19T17:15:00.483Z,48.60
2018-07-19T17:17:29.117Z,49.40
2018-07-19T17:19:57.552Z,49.00
2018-07-19T17:22:26.054Z,50.10
2018-07-19T17:24:54.833Z,48.90
2018-07-19T17:27:23.373Z,48.70
2018-07-19T17:29:51.778Z,50.60
2018-07-19T17:32:20.233Z,52.00
2018-07-19T17:34:48.631Z,51.10
2018-07-19T17:37:17.050Z,48.00
2018-07-19T17:39:45.539Z,47.80
2018-07-19T17:42:13.993Z,48.80
2018-07-19T17:44:42.456Z,49.80
2018-07-19T17:47:10.907Z,48.40
2018-07-19T17:49:39.295Z,49.50
2018-07-19T17:52:07.935Z,50.50
2018-07-19T17:54:36.513Z,52.20
2018-07-19T17:57:05.235Z,52.70
2018-07-19T17:59:33.617Z,52.10
2018-07-19T18:02:04.365Z,53.50
2018-07-19T18:04:32.826Z,54.00
2018-07-19T18:07:01.322Z,55.80
2018-07-19T18:09:29.874Z,56.20
2018-07-19T18:11:58.411Z,55.60
2018-07-19T18:14:26.812Z,55.90
2018-07-19T18:16:55.212Z,55.90
2018-07-19T18:19:23.637Z,54.90
2018-07-19T18:21:52.090Z,55.40
2018-07-19T18:24:20.527Z,54.60
2018-07-19T18:26:49.043Z,55.40
2018-07-19T18:29:17.391Z,55.80
2018-07-19T18:31:45.877Z,55.90
2018-07-19T18:34:14.313Z,55.30
2018-07-19T18:36:43.874Z,55.20
2018-07-19T18:39:13.278Z,55.90
2018-07-19T18:41:41.886Z,55.80
2018-07-19T18:44:10.258Z,55.30
2018-07-19T18:46:38.737Z,55.20
2018-07-19T18:49:07.182Z,55.60
2018-07-19T18:51:35.694Z,55.50
2018-07-19T18:54:04.419Z,55.80
2018-07-19T18:56:33.036Z,55.10
2018-07-19T18:59:01.407Z,54.90
2018-07-19T19:01:29.901Z,54.80
2018-07-19T19:03:58.244Z,55.60
2018-07-19T19:06:26.737Z,55.10
2018-07-19T19:08:55.270Z,54.60
2018-07-19T19:11:23.812Z,54.90
2018-07-19T19:13:52.234Z,55.10
2018-07-19T19:16:21.121Z,55.00
2018-07-19T19:18:49.563Z,53.70
2018-07-19T19:21:18.012Z,55.00
2018-07-19T19:23:46.419Z,55.20
2018-07-19T19:26:14.994Z,56.10
2018-07-19T19:28:44.124Z,56.50
2018-07-19T19:31:13.430Z,55.80
2018-07-19T19:33:41.869Z,55.00
2018-07-19T19:36:10.359Z,55.50
2018-07-19T19:38:38.826Z,54.70
2018-07-19T19:41:07.309Z,54.90
2018-07-19T19:43:35.959Z,54.60
2018-07-19T19:46:04.722Z,54.10
2018-07-19T19:48:36.127Z,54.30
2018-07-19T19:51:06.081Z,54.80
2018-07-19T19:53:34.662Z,52.50
2018-07-19T19:56:03.606Z,54.90
2018-07-19T19:58:32.345Z,54.40
2018-07-19T20:01:01.080Z,54.50
2018-07-19T20:03:29.865Z,53.20
2018-07-19T20:05:58.669Z,53.20
2018-07-19T20:08:27.395Z,54.60
2018-07-19T20:13:23.998Z,54.30
2018-07-19T20:15:52.415Z,55.00
2018-07-19T20:18:20.953Z,54.70
2018-07-19T20:20:49.395Z,55.10
2018-07-19T20:23:17.850Z,54.60
2018-07-19T20:25:46.220Z,55.70
2018-07-19T20:28:14.992Z,55.80
2018-07-19T20:30:44.265Z,55.90
2018-07-19T20:33:13.249Z,56.00
2018-07-19T20:35:41.763Z,56.60
2018-07-19T20:38:10.180Z,56.90
2018-07-19T20:40:39.386Z,56.70
2018-07-19T20:43:08.269Z,56.40
2018-07-19T20:45:36.820Z,56.70
2018-07-19T20:48:05.146Z,56.50
2018-07-19T20:50:33.682Z,56.20
2018-07-19T20:53:02.127Z,55.30
2018-07-19T20:55:30.637Z,56.30
2018-07-19T20:57:59.038Z,55.70
2018-07-19T21:00:27.682Z,55.50
2018-07-19T21:02:56.045Z,55.80
2018-07-19T21:05:24.478Z,56.20
2018-07-19T21:07:52.869Z,55.10
2018-07-19T21:10:21.396Z,55.10
2018-07-19T21:12:49.824Z,55.70
2018-07-19T21:15:18.393Z,55.40
2018-07-19T21:17:46.757Z,55.80
2018-07-19T21:20:15.337Z,55.00
2018-07-19T21:22:43.763Z,54.80
2018-07-19T21:25:12.277Z,54.90
2018-07-19T21:27:40.638Z,55.40
2018-07-19T21:30:09.887Z,55.60
2018-07-19T21:32:38.922Z,55.80
2018-07-19T21:37:35.778Z,55.70
2018-07-19T21:40:04.306Z,55.30
2018-07-19T21:42:32.696Z,54.90
2018-07-19T21:45:01.251Z,54.70
2018-07-19T21:47:29.676Z,54.50
2018-07-19T21:49:58.231Z,54.20
2018-07-19T21:52:26.588Z,53.90
2018-07-19T21:54:55.180Z,54.10
2018-07-19T21:57:23.609Z,53.30
2018-07-19T21:59:52.069Z,54.20
2018-07-19T22:02:20.490Z,54.20
2018-07-19T22:04:48.958Z,54.10
2018-07-19T22:07:17.491Z,53.30
2018-07-19T22:09:46.226Z,52.60
2018-07-19T22:12:14.693Z,52.20
2018-07-19T22:14:43.170Z,51.20
2018-07-19T22:17:11.594Z,51.50
2018-07-19T22:19:40.196Z,51.20
2018-07-19T22:22:09.236Z,51.90
2018-07-19T22:24:37.769Z,51.80
2018-07-19T22:27:06.153Z,51.60
2018-07-19T22:29:34.665Z,51.60
2018-07-19T22:32:03.454Z,51.50
2018-07-19T22:37:00.103Z,50.70
2018-07-19T22:39:28.639Z,51.20
2018-07-19T22:41:57.594Z,51.40
2018-07-19T22:44:26.095Z,50.80
2018-07-19T22:46:54.483Z,50.60
2018-07-19T22:49:23.244Z,50.80
2018-07-19T22:51:51.636Z,50.60
2018-07-19T22:54:20.647Z,50.70
2018-07-19T22:56:49.821Z,51.00
2018-07-19T22:59:18.764Z,50.60
2018-07-19T23:01:47.342Z,50.60
2018-07-19T23:04:15.834Z,50.40
2018-07-19T23:06:44.390Z,50.40
2018-07-19T23:09:12.883Z,50.20
2018-07-19T23:11:41.276Z,50.40
2018-07-19T23:14:09.856Z,50.90
2018-07-19T23:16:38.297Z,51.10
2018-07-19T23:19:06.897Z,51.30
2018-07-19T23:21:35.590Z,51.10
2018-07-19T23:24:04.106Z,50.80
2018-07-19T23:26:32.552Z,50.20
2018-07-19T23:29:01.148Z,50.80
2018-07-19T23:31:29.558Z,50.40
2018-07-19T23:33:58.023Z,50.70
2018-07-19T23:36:35.610Z,50.00
2018-07-19T23:39:15.741Z,50.80
2018-07-19T23:41:51.074Z,50.90
2018-07-19T23:44:25.014Z,51.10
2018-07-19T23:47:11.873Z,50.60
2018-07-19T23:49:41.064Z,50.40
2018-07-19T23:52:09.966Z,50.70
2018-07-19T23:54:39.180Z,50.40
2018-07-19T23:57:07.681Z,50.00
2018-07-19T23:59:36.078Z,49.90
